createdAt,value
2023-04-05T00:00:29.537Z,17.27
2023-04-05T00:01:29.666Z,17.26
2023-04-05T00:02:29.440Z,17.24
2023-04-05T00:03:29.448Z,17.24
2023-04-05T00:04:30.423Z,17.22
2023-04-05T00:05:29.434Z,17.20
2023-04-05T00:06:30.750Z,17.20
2023-04-05T00:07:29.481Z,17.20
2023-04-05T00:08:30.528Z,17.19
2023-04-05T00:09:29.352Z,17.19
2023-04-05T00:10:29.368Z,17.16
2023-04-05T00:11:29.306Z,17.16
2023-04-05T00:12:29.288Z,17.15
2023-04-05T00:13:29.298Z,17.15
2023-04-05T00:14:29.574Z,17.15
2023-04-05T00:15:29.299Z,17.15
2023-04-05T00:16:29.362Z,17.14
2023-04-05T00:17:29.390Z,17.14
2023-04-05T00:18:29.338Z,17.14
2023-04-05T00:19:29.888Z,17.12
2023-04-05T00:20:29.285Z,17.14
2023-04-05T00:21:29.335Z,17.14
2023-04-05T00:22:29.210Z,17.12
2023-04-05T00:23:29.174Z,17.12
2023-04-05T00:24:29.190Z,17.11
2023-04-05T00:25:29.174Z,17.12
2023-04-05T00:26:29.158Z,17.12
2023-04-05T00:27:29.134Z,17.11
2023-04-05T00:28:29.149Z,17.11
2023-04-05T00:29:29.123Z,17.12
2023-04-05T00:30:29.130Z,17.11
2023-04-05T00:31:29.169Z,17.11
2023-04-05T00:32:29.227Z,17.11
2023-04-05T00:33:29.237Z,17.11
2023-04-05T00:34:29.696Z,17.11
2023-04-05T00:35:29.054Z,17.11
2023-04-05T00:36:29.042Z,17.12
2023-04-05T00:37:29.014Z,17.11
2023-04-05T00:38:29.000Z,17.11
2023-04-05T00:39:29.008Z,17.11
2023-04-05T00:40:28.987Z,17.09
2023-04-05T00:41:28.961Z,17.08
2023-04-05T00:42:28.971Z,17.08
2023-04-05T00:43:28.940Z,17.06
2023-04-05T00:44:28.982Z,17.09
2023-04-05T00:45:28.934Z,17.08
2023-04-05T00:46:28.987Z,17.09
2023-04-05T00:47:28.967Z,17.08
2023-04-05T00:48:28.911Z,17.06
2023-04-05T00:49:29.195Z,17.08
2023-04-05T00:50:29.017Z,17.06
2023-04-05T00:51:28.885Z,17.08
2023-04-05T00:52:29.007Z,17.06
2023-04-05T00:53:28.864Z,17.06
2023-04-05T00:54:28.825Z,17.06
2023-04-05T00:55:28.868Z,17.08
2023-04-05T00:56:28.828Z,17.06
2023-04-05T00:57:28.820Z,17.06
2023-04-05T00:58:28.892Z,17.06
2023-04-05T00:59:28.794Z,17.06
2023-04-05T01:00:28.758Z,17.06
2023-04-05T01:01:28.780Z,17.08
2023-04-05T01:02:28.812Z,17.06
2023-04-05T01:03:28.748Z,17.06
2023-04-05T01:04:28.765Z,17.08
2023-04-05T01:05:28.718Z,17.06
2023-04-05T01:06:28.789Z,17.06
2023-04-05T01:07:28.724Z,17.08
2023-04-05T01:08:28.715Z,17.06
2023-04-05T01:09:28.664Z,17.06
2023-04-05T01:10:28.671Z,17.06
2023-04-05T01:11:28.632Z,17.06
2023-04-05T01:12:28.638Z,17.06
2023-04-05T01:13:28.597Z,17.06
2023-04-05T01:14:28.615Z,17.08
2023-04-05T01:15:28.632Z,17.05
2023-04-05T01:16:28.988Z,17.06
2023-04-05T01:17:28.738Z,17.06
2023-04-05T01:18:28.550Z,17.06
2023-04-05T01:19:28.588Z,17.08
2023-04-05T01:20:28.582Z,17.06
2023-04-05T01:21:28.517Z,17.06
2023-04-05T01:22:28.523Z,17.06
2023-04-05T01:23:28.511Z,17.06
2023-04-05T01:24:28.612Z,17.06
2023-04-05T01:25:28.522Z,17.08
2023-04-05T01:26:28.502Z,17.05
2023-04-05T01:27:28.502Z,17.05
2023-04-05T01:28:28.453Z,17.06
2023-04-05T01:29:28.429Z,17.05
2023-04-05T01:30:28.437Z,17.04
2023-04-05T01:31:28.479Z,17.04
2023-04-05T01:32:28.461Z,17.04
2023-04-05T01:33:28.472Z,17.06
2023-04-05T01:34:28.385Z,17.05
2023-04-05T01:35:28.377Z,17.05
2023-04-05T01:36:28.368Z,17.06
2023-04-05T01:37:28.370Z,17.05
2023-04-05T01:38:28.375Z,17.05
2023-04-05T01:39:28.326Z,17.05
2023-04-05T01:40:28.671Z,17.05
2023-04-05T01:41:28.308Z,17.06
2023-04-05T01:42:29.222Z,17.06
2023-04-05T01:43:28.302Z,17.05
2023-04-05T01:44:28.278Z,17.05
2023-04-05T01:45:28.273Z,17.05
2023-04-05T01:46:29.715Z,17.05
2023-04-05T01:47:28.250Z,17.04
2023-04-05T01:48:28.213Z,17.04
2023-04-05T01:49:28.237Z,17.04
2023-04-05T01:50:28.279Z,17.04
2023-04-05T01:51:28.188Z,17.04
2023-04-05T01:52:28.174Z,17.04
2023-04-05T01:53:28.167Z,17.04
2023-04-05T01:54:28.192Z,17.02
2023-04-05T01:55:28.140Z,17.02
2023-04-05T01:56:28.180Z,17.04
2023-04-05T01:57:28.822Z,17.05
2023-04-05T01:58:28.219Z,17.04
2023-04-05T01:59:28.908Z,17.05
2023-04-05T02:00:28.144Z,17.04
2023-04-05T02:01:28.197Z,17.05
2023-04-05T02:02:28.111Z,17.02
2023-04-05T02:03:28.206Z,17.02
2023-04-05T02:04:28.070Z,17.04
2023-04-05T02:05:28.063Z,17.02
2023-04-05T02:06:28.025Z,17.05
2023-04-05T02:07:28.035Z,17.05
2023-04-05T02:08:28.050Z,17.04
2023-04-05T02:09:28.010Z,17.04
2023-04-05T02:10:27.987Z,17.04
2023-04-05T02:11:28.056Z,17.04
2023-04-05T02:12:27.962Z,17.04
2023-04-05T02:13:27.967Z,17.04
2023-04-05T02:14:27.946Z,17.04
2023-04-05T02:15:27.932Z,17.04
2023-04-05T02:16:27.972Z,17.04
2023-04-05T02:17:27.928Z,17.05
2023-04-05T02:18:27.907Z,17.02
2023-04-05T02:19:27.944Z,17.02
2023-04-05T02:20:27.880Z,17.05
2023-04-05T02:21:34.864Z,17.02
2023-04-05T02:22:27.891Z,17.02
2023-04-05T02:23:27.843Z,17.04
2023-04-05T02:24:27.831Z,17.04
2023-04-05T02:25:27.846Z,17.04
2023-04-05T02:26:27.806Z,17.04
2023-04-05T02:27:27.850Z,17.04
2023-04-05T02:28:27.780Z,17.04
2023-04-05T02:29:27.855Z,17.04
2023-04-05T02:30:27.746Z,17.04
2023-04-05T02:31:27.811Z,17.04
2023-04-05T02:32:27.795Z,17.04
2023-04-05T02:33:27.730Z,17.02
2023-04-05T02:34:27.706Z,17.02
2023-04-05T02:35:34.716Z,17.02
2023-04-05T02:36:27.710Z,17.04
2023-04-05T02:37:27.671Z,17.02
2023-04-05T02:38:27.685Z,17.02
2023-04-05T02:39:27.666Z,17.04
2023-04-05T02:40:27.767Z,17.04
2023-04-05T02:41:27.632Z,17.04
2023-04-05T02:42:28.290Z,17.04
2023-04-05T02:43:27.609Z,17.02
2023-04-05T02:44:27.616Z,17.04
2023-04-05T02:45:27.675Z,17.02
2023-04-05T02:46:27.616Z,17.04
2023-04-05T02:47:27.599Z,17.02
2023-04-05T02:48:27.602Z,17.02
2023-04-05T02:49:27.567Z,17.02
2023-04-05T02:50:27.561Z,17.01
2023-04-05T02:51:27.572Z,17.02
2023-04-05T02:52:27.642Z,17.02
2023-04-05T02:53:27.509Z,17.02
2023-04-05T02:54:27.502Z,17.02
2023-04-05T02:55:27.509Z,17.02
2023-04-05T02:56:27.512Z,17.02
2023-04-05T02:57:27.469Z,17.02
2023-04-05T02:58:27.474Z,17.02
2023-04-05T02:59:27.505Z,17.04
2023-04-05T03:00:27.423Z,17.04
2023-04-05T03:01:27.458Z,17.04
2023-04-05T03:02:27.522Z,17.04
2023-04-05T03:03:28.425Z,17.02
2023-04-05T03:04:28.276Z,17.04
2023-04-05T03:05:27.539Z,17.02
2023-04-05T03:06:27.373Z,17.04
2023-04-05T03:07:27.368Z,17.04
2023-04-05T03:08:27.358Z,17.04
2023-04-05T03:09:27.325Z,17.02
2023-04-05T03:10:27.330Z,17.02
2023-04-05T03:11:27.312Z,17.02
2023-04-05T03:12:27.323Z,17.02
2023-04-05T03:13:27.314Z,17.02
2023-04-05T03:14:27.356Z,17.02
2023-04-05T03:15:27.288Z,17.02
2023-04-05T03:16:27.408Z,17.02
2023-04-05T03:17:27.324Z,17.02
2023-04-05T03:18:27.256Z,17.04
2023-04-05T03:19:27.243Z,17.01
2023-04-05T03:20:27.207Z,17.01
2023-04-05T03:21:27.280Z,17.01
2023-04-05T03:22:27.183Z,16.99
2023-04-05T03:23:27.200Z,17.01
2023-04-05T03:24:27.270Z,16.99
2023-04-05T03:25:27.154Z,16.97
2023-04-05T03:26:27.141Z,16.97
2023-04-05T03:27:27.129Z,16.96
2023-04-05T03:28:27.122Z,16.96
2023-04-05T03:29:27.119Z,16.96
2023-04-05T03:30:27.141Z,16.94
2023-04-05T03:31:27.139Z,16.93
2023-04-05T03:32:27.128Z,16.93
2023-04-05T03:33:27.062Z,16.91
2023-04-05T03:34:27.058Z,16.91
2023-04-05T03:35:27.074Z,16.90
2023-04-05T03:36:27.041Z,16.90
2023-04-05T03:37:27.183Z,16.90
2023-04-05T03:38:26.991Z,16.89
2023-04-05T03:39:27.004Z,16.89
2023-04-05T03:40:26.963Z,16.89
2023-04-05T03:41:26.994Z,16.89
2023-04-05T03:42:26.960Z,16.89
2023-04-05T03:43:26.991Z,16.89
2023-04-05T03:44:26.963Z,16.89
2023-04-05T03:45:26.918Z,16.87
2023-04-05T03:46:26.989Z,16.87
2023-04-05T03:47:26.956Z,16.87
2023-04-05T03:48:26.907Z,16.86
2023-04-05T03:49:26.909Z,16.86
2023-04-05T03:50:26.865Z,16.86
2023-04-05T03:51:26.918Z,16.86
2023-04-05T03:52:26.867Z,16.86
2023-04-05T03:53:27.564Z,16.86
2023-04-05T03:54:26.811Z,16.84
2023-04-05T03:55:26.818Z,16.84
2023-04-05T03:56:26.783Z,16.84
2023-04-05T03:57:26.782Z,16.86
2023-04-05T03:58:26.770Z,16.84
2023-04-05T03:59:26.834Z,16.84
2023-04-05T04:00:26.757Z,16.84
2023-04-05T04:01:27.422Z,16.83
2023-04-05T04:02:26.789Z,16.84
2023-04-05T04:03:26.713Z,16.86
2023-04-05T04:04:26.726Z,16.84
2023-04-05T04:05:26.870Z,16.83
2023-04-05T04:06:26.759Z,16.84
2023-04-05T04:07:26.701Z,16.86
2023-04-05T04:08:26.707Z,16.86
2023-04-05T04:09:26.669Z,16.86
2023-04-05T04:10:26.629Z,16.86
2023-04-05T04:11:26.650Z,16.86
2023-04-05T04:12:26.660Z,16.87
2023-04-05T04:13:26.638Z,16.87
2023-04-05T04:14:26.588Z,16.87
2023-04-05T04:15:26.602Z,16.89
2023-04-05T04:16:28.714Z,16.89
2023-04-05T04:17:26.633Z,16.90
2023-04-05T04:18:26.565Z,16.90
2023-04-05T04:19:26.548Z,16.91
2023-04-05T04:20:26.564Z,16.91
2023-04-05T04:21:26.521Z,16.91
2023-04-05T04:22:26.532Z,16.91
2023-04-05T04:23:26.507Z,16.93
2023-04-05T04:24:26.497Z,16.94
2023-04-05T04:25:26.487Z,16.93
2023-04-05T04:26:26.459Z,16.94
2023-04-05T04:27:26.440Z,16.94
2023-04-05T04:28:26.511Z,16.94
2023-04-05T04:29:26.437Z,16.94
2023-04-05T04:30:26.419Z,16.96
2023-04-05T04:31:26.445Z,16.94
2023-04-05T04:32:26.477Z,16.96
2023-04-05T04:33:26.387Z,16.96
2023-04-05T04:34:26.414Z,16.97
2023-04-05T04:35:26.396Z,16.99
2023-04-05T04:36:26.373Z,16.97
2023-04-05T04:37:26.349Z,16.97
2023-04-05T04:38:26.352Z,16.97
2023-04-05T04:39:26.308Z,16.97
2023-04-05T04:40:26.358Z,16.97
2023-04-05T04:41:26.312Z,16.99
2023-04-05T04:42:26.280Z,16.99
2023-04-05T04:43:26.311Z,16.99
2023-04-05T04:44:26.259Z,16.99
2023-04-05T04:45:26.293Z,16.99
2023-04-05T04:46:26.285Z,16.99
2023-04-05T04:47:26.325Z,16.99
2023-04-05T04:48:26.211Z,16.97
2023-04-05T04:49:26.237Z,16.99
2023-04-05T04:50:26.363Z,16.97
2023-04-05T04:51:26.199Z,17.01
2023-04-05T04:52:26.201Z,17.01
2023-04-05T04:53:26.245Z,16.99
2023-04-05T04:54:26.235Z,17.01
2023-04-05T04:55:26.155Z,17.01
2023-04-05T04:56:26.144Z,17.01
2023-04-05T04:57:26.182Z,17.01
2023-04-05T04:58:26.117Z,16.99
2023-04-05T04:59:26.127Z,16.99
2023-04-05T05:00:26.157Z,16.99
2023-04-05T05:01:26.092Z,16.99
2023-04-05T05:02:26.114Z,17.01
2023-04-05T05:03:26.108Z,17.01
2023-04-05T05:04:26.081Z,16.99
2023-04-05T05:05:26.042Z,16.99
2023-04-05T05:06:26.068Z,17.02
2023-04-05T05:07:26.001Z,17.01
2023-04-05T05:08:26.005Z,16.99
2023-04-05T05:09:25.987Z,16.99
2023-04-05T05:10:26.015Z,16.99
2023-04-05T05:11:25.967Z,16.99
2023-04-05T05:12:25.974Z,17.01
2023-04-05T05:13:25.958Z,16.99
2023-04-05T05:14:25.924Z,16.99
2023-04-05T05:15:25.917Z,16.99
2023-04-05T05:16:26.008Z,16.99
2023-04-05T05:17:25.942Z,16.99
2023-04-05T05:18:25.879Z,16.99
2023-04-05T05:19:25.895Z,16.99
2023-04-05T05:20:25.970Z,16.99
2023-04-05T05:21:25.862Z,16.99
2023-04-05T05:22:25.889Z,16.99
2023-04-05T05:23:25.838Z,16.97
2023-04-05T05:24:25.814Z,16.99
2023-04-05T05:25:25.858Z,16.97
2023-04-05T05:26:25.830Z,16.97
2023-04-05T05:27:25.777Z,16.97
2023-04-05T05:28:25.778Z,16.96
2023-04-05T05:29:25.821Z,16.97
2023-04-05T05:30:25.770Z,16.97
2023-04-05T05:31:25.863Z,16.96
2023-04-05T05:32:25.768Z,16.96
2023-04-05T05:33:25.750Z,16.96
2023-04-05T05:34:25.716Z,16.96
2023-04-05T05:35:25.755Z,16.97
2023-04-05T05:36:25.714Z,16.96
2023-04-05T05:37:25.735Z,16.94
2023-04-05T05:38:25.686Z,16.94
2023-04-05T05:39:27.104Z,16.96
2023-04-05T05:40:25.829Z,16.96
2023-04-05T05:41:25.641Z,16.96
2023-04-05T05:42:25.627Z,16.94
2023-04-05T05:43:25.666Z,16.94
2023-04-05T05:44:25.617Z,16.94
2023-04-05T05:45:25.573Z,16.94
2023-04-05T05:46:25.698Z,16.94
2023-04-05T05:47:25.586Z,16.94
2023-04-05T05:48:25.614Z,16.93
2023-04-05T05:49:25.558Z,16.94
2023-04-05T05:50:25.554Z,16.93
2023-04-05T05:51:25.554Z,16.94
2023-04-05T05:52:25.510Z,16.93
2023-04-05T05:53:25.514Z,16.94
2023-04-05T05:54:25.516Z,16.94
2023-04-05T05:55:25.534Z,16.94
2023-04-05T05:56:25.464Z,16.93
2023-04-05T05:57:25.462Z,16.93
2023-04-05T05:58:25.502Z,16.93
2023-04-05T05:59:25.462Z,16.93
2023-04-05T06:00:25.503Z,16.93
2023-04-05T06:01:25.397Z,16.94
2023-04-05T06:02:25.461Z,16.91
2023-04-05T06:03:25.422Z,16.93
2023-04-05T06:04:25.515Z,16.93
2023-04-05T06:05:25.435Z,16.91
2023-04-05T06:06:25.336Z,16.93
2023-04-05T06:07:25.356Z,16.94
2023-04-05T06:08:25.326Z,16.94
2023-04-05T06:09:25.380Z,16.94
2023-04-05T06:10:25.320Z,16.94
2023-04-05T06:11:25.359Z,16.94
2023-04-05T06:12:27.582Z,16.96
2023-04-05T06:13:25.291Z,16.96
2023-04-05T06:14:25.481Z,16.96
2023-04-05T06:15:25.270Z,16.96
2023-04-05T06:16:25.435Z,16.96
2023-04-05T06:17:25.244Z,16.97
2023-04-05T06:18:25.226Z,16.96
2023-04-05T06:19:25.268Z,16.96
2023-04-05T06:20:25.211Z,16.96
2023-04-05T06:21:25.244Z,16.97
2023-04-05T06:22:25.172Z,16.96
2023-04-05T06:23:25.193Z,16.96
2023-04-05T06:24:25.159Z,16.97
2023-04-05T06:25:25.130Z,16.97
2023-04-05T06:26:25.121Z,16.97
2023-04-05T06:27:25.162Z,16.99
2023-04-05T06:28:25.292Z,16.99
2023-04-05T06:29:25.102Z,16.99
2023-04-05T06:30:25.139Z,16.99
2023-04-05T06:31:25.129Z,16.97
2023-04-05T06:32:25.197Z,16.97
2023-04-05T06:33:25.060Z,16.97
2023-04-05T06:34:25.114Z,16.96
2023-04-05T06:35:25.036Z,16.97
2023-04-05T06:36:27.294Z,16.96
2023-04-05T06:37:25.098Z,16.97
2023-04-05T06:38:25.053Z,16.97
2023-04-05T06:39:24.982Z,16.97
2023-04-05T06:40:24.966Z,16.97
2023-04-05T06:41:25.000Z,16.97
2023-04-05T06:42:26.462Z,16.97
2023-04-05T06:43:24.951Z,16.96
2023-04-05T06:44:24.976Z,16.97
2023-04-05T06:45:24.944Z,16.97
2023-04-05T06:46:25.093Z,16.96
2023-04-05T06:47:24.905Z,16.96
2023-04-05T06:48:24.903Z,16.97
2023-04-05T06:49:24.946Z,16.96
2023-04-05T06:50:24.865Z,16.99
2023-04-05T06:51:24.879Z,16.97
2023-04-05T06:52:24.842Z,16.97
2023-04-05T06:53:24.841Z,16.99
2023-04-05T06:54:24.837Z,16.99
2023-04-05T06:55:24.995Z,16.99
2023-04-05T06:56:24.870Z,16.99
2023-04-05T06:57:24.792Z,16.97
2023-04-05T06:58:24.783Z,16.99
2023-04-05T06:59:24.885Z,16.99
2023-04-05T07:00:24.736Z,16.97
2023-04-05T07:01:24.853Z,16.97
2023-04-05T07:02:24.797Z,16.96
2023-04-05T07:03:24.725Z,16.96
2023-04-05T07:04:24.777Z,16.97
2023-04-05T07:05:24.704Z,16.99
2023-04-05T07:06:24.728Z,16.97
2023-04-05T07:07:24.691Z,16.97
2023-04-05T07:08:24.665Z,16.99
2023-04-05T07:09:24.659Z,16.99
2023-04-05T07:10:24.669Z,16.99
2023-04-05T07:11:24.688Z,16.99
2023-04-05T07:12:24.620Z,16.99
2023-04-05T07:13:24.628Z,16.97
2023-04-05T07:14:24.586Z,16.99
2023-04-05T07:15:24.571Z,16.97
2023-04-05T07:16:24.721Z,16.97
2023-04-05T07:17:24.663Z,16.97
2023-04-05T07:18:24.844Z,16.97
2023-04-05T07:19:24.553Z,16.97
2023-04-05T07:20:24.531Z,16.97
2023-04-05T07:21:24.534Z,16.99
2023-04-05T07:22:24.550Z,16.97
2023-04-05T07:23:24.500Z,16.97
2023-04-05T07:24:24.481Z,16.96
2023-04-05T07:25:24.469Z,16.97
2023-04-05T07:26:24.476Z,16.97
2023-04-05T07:27:24.434Z,16.96
2023-04-05T07:28:24.457Z,16.97
2023-04-05T07:29:24.504Z,16.97
2023-04-05T07:30:24.410Z,16.97
2023-04-05T07:31:24.399Z,16.97
2023-04-05T07:32:24.431Z,16.97
2023-04-05T07:33:24.429Z,16.99
2023-04-05T07:34:24.372Z,16.99
2023-04-05T07:35:24.361Z,16.97
2023-04-05T07:36:24.486Z,16.97
2023-04-05T07:37:24.333Z,16.97
2023-04-05T07:38:24.313Z,16.99
2023-04-05T07:39:24.345Z,16.97
2023-04-05T07:40:24.341Z,16.97
2023-04-05T07:41:24.326Z,16.97
2023-04-05T07:42:24.301Z,16.99
2023-04-05T07:43:24.310Z,16.97
2023-04-05T07:44:24.265Z,16.96
2023-04-05T07:45:24.309Z,16.97
2023-04-05T07:46:24.288Z,16.96
2023-04-05T07:47:24.407Z,16.94
2023-04-05T07:48:24.256Z,16.94
2023-04-05T07:49:24.218Z,16.94
2023-04-05T07:50:24.196Z,16.96
2023-04-05T07:51:24.186Z,16.94
2023-04-05T07:52:24.185Z,16.94
2023-04-05T07:53:24.240Z,16.94
2023-04-05T07:54:24.258Z,16.93
2023-04-05T07:55:24.163Z,16.94
2023-04-05T07:56:24.194Z,16.93
2023-04-05T07:57:24.125Z,16.94
2023-04-05T07:58:24.108Z,16.94
2023-04-05T07:59:24.177Z,16.94
2023-04-05T08:00:24.093Z,16.94
2023-04-05T08:01:24.083Z,16.94
2023-04-05T08:02:24.088Z,16.94
2023-04-05T08:03:24.066Z,16.94
2023-04-05T08:04:24.057Z,16.94
2023-04-05T08:05:24.286Z,16.96
2023-04-05T08:06:24.062Z,16.97
2023-04-05T08:07:24.021Z,16.96
2023-04-05T08:08:23.996Z,16.97
2023-04-05T08:09:24.049Z,16.97
2023-04-05T08:10:23.980Z,16.97
2023-04-05T08:11:24.013Z,16.99
2023-04-05T08:12:23.979Z,17.01
2023-04-05T08:13:23.970Z,17.01
2023-04-05T08:14:24.140Z,17.01
2023-04-05T08:15:23.954Z,17.04
2023-04-05T08:16:23.977Z,17.02
2023-04-05T08:17:24.062Z,17.02
2023-04-05T08:18:23.900Z,17.05
2023-04-05T08:19:23.902Z,17.05
2023-04-05T08:20:23.895Z,17.04
2023-04-05T08:21:23.923Z,17.05
2023-04-05T08:22:23.872Z,17.08
2023-04-05T08:23:23.831Z,17.11
2023-04-05T08:24:30.960Z,17.11
2023-04-05T08:25:23.801Z,17.15
2023-04-05T08:26:23.798Z,17.15
2023-04-05T08:27:23.773Z,17.15
2023-04-05T08:28:23.765Z,17.15
2023-04-05T08:29:23.777Z,17.14
2023-04-05T08:30:23.753Z,17.14
2023-04-05T08:31:23.877Z,17.09
2023-04-05T08:32:23.761Z,17.08
2023-04-05T08:33:23.714Z,17.05
2023-04-05T08:34:23.751Z,17.02
2023-04-05T08:35:23.782Z,17.01
2023-04-05T08:36:23.691Z,16.99
2023-04-05T08:37:23.651Z,16.97
2023-04-05T08:38:23.668Z,16.94
2023-04-05T08:39:23.714Z,16.93
2023-04-05T08:40:23.693Z,16.91
2023-04-05T08:41:23.698Z,16.90
2023-04-05T08:42:23.619Z,16.86
2023-04-05T08:43:23.682Z,16.83
2023-04-05T08:44:24.346Z,16.84
2023-04-05T08:45:23.593Z,16.81
2023-04-05T08:46:23.708Z,16.78
2023-04-05T08:47:23.577Z,16.76
2023-04-05T08:48:23.565Z,16.76
2023-04-05T08:49:23.573Z,16.74
2023-04-05T08:50:23.557Z,16.71
2023-04-05T08:51:23.548Z,16.69
2023-04-05T08:52:23.496Z,16.66
2023-04-05T08:53:23.570Z,16.65
2023-04-05T08:54:23.501Z,16.60
2023-04-05T08:55:23.522Z,16.58
2023-04-05T08:56:23.464Z,16.57
2023-04-05T08:57:23.526Z,16.57
2023-04-05T08:58:23.476Z,16.53
2023-04-05T08:59:23.485Z,16.51
2023-04-05T09:00:23.456Z,16.50
2023-04-05T09:01:23.500Z,16.49
2023-04-05T09:02:23.429Z,16.47
2023-04-05T09:03:23.585Z,16.46
2023-04-05T09:04:23.626Z,16.46
2023-04-05T09:05:23.355Z,16.41
2023-04-05T09:06:23.412Z,16.42
2023-04-05T09:07:23.395Z,16.39
2023-04-05T09:08:23.330Z,16.39
2023-04-05T09:09:23.334Z,16.38
2023-04-05T09:10:23.322Z,16.36
2023-04-05T09:11:23.286Z,16.36
2023-04-05T09:12:23.274Z,16.36
2023-04-05T09:13:23.310Z,16.33
2023-04-05T09:14:24.029Z,16.35
2023-04-05T09:15:23.246Z,16.32
2023-04-05T09:16:23.273Z,16.33
2023-04-05T09:17:23.253Z,16.31
2023-04-05T09:18:27.403Z,16.31
2023-04-05T09:19:23.217Z,16.29
2023-04-05T09:20:23.306Z,16.29
2023-04-05T09:21:23.199Z,16.28
2023-04-05T09:22:23.195Z,16.26
2023-04-05T09:23:23.161Z,16.24
2023-04-05T09:24:23.213Z,16.24
2023-04-05T09:25:23.152Z,16.21
2023-04-05T09:26:23.135Z,16.21
2023-04-05T09:27:23.150Z,16.20
2023-04-05T09:28:23.179Z,16.20
2023-04-05T09:29:23.132Z,16.17
2023-04-05T09:30:23.137Z,16.16
2023-04-05T09:31:23.139Z,16.13
2023-04-05T09:32:23.190Z,16.13
2023-04-05T09:33:23.075Z,16.13
2023-04-05T09:34:23.062Z,16.13
2023-04-05T09:35:23.105Z,16.15
2023-04-05T09:36:23.004Z,16.16
2023-04-05T09:37:23.120Z,16.17
2023-04-05T09:38:23.003Z,16.17
2023-04-05T09:39:22.983Z,16.16
2023-04-05T09:40:22.978Z,16.20
2023-04-05T09:41:22.958Z,16.21
2023-04-05T09:42:23.309Z,16.23
2023-04-05T09:43:22.982Z,16.23
2023-04-05T09:44:23.053Z,16.23
2023-04-05T09:45:22.926Z,16.26
2023-04-05T09:46:23.000Z,16.26
2023-04-05T09:47:23.143Z,16.28
2023-04-05T09:48:22.925Z,16.28
2023-04-05T09:49:22.944Z,16.29
2023-04-05T09:50:22.872Z,16.29
2023-04-05T09:51:22.877Z,16.31
2023-04-05T09:52:22.855Z,16.31
2023-04-05T09:53:22.848Z,16.32
2023-04-05T09:54:22.824Z,16.32
2023-04-05T09:55:22.845Z,16.35
2023-04-05T09:56:22.806Z,16.33
2023-04-05T09:57:22.836Z,16.35
2023-04-05T09:58:22.813Z,16.36
2023-04-05T09:59:22.908Z,16.36
2023-04-05T10:00:22.982Z,16.36
2023-04-05T10:01:22.871Z,16.38
2023-04-05T10:03:23.081Z,16.43
2023-04-05T10:04:22.752Z,16.46
2023-04-05T10:05:22.675Z,16.46
2023-04-05T10:06:22.732Z,16.46
2023-04-05T10:07:22.755Z,16.46
2023-04-05T10:08:22.686Z,16.46
2023-04-05T10:09:22.633Z,16.47
2023-04-05T10:10:22.673Z,16.46
2023-04-05T10:11:22.629Z,16.50
2023-04-05T10:12:22.672Z,16.50
2023-04-05T10:13:22.599Z,16.50
2023-04-05T10:14:22.650Z,16.51
2023-04-05T10:15:22.585Z,16.54
2023-04-05T10:16:22.673Z,16.56
2023-04-05T10:17:22.588Z,16.56
2023-04-05T10:18:22.586Z,16.58
2023-04-05T10:19:22.528Z,16.60
2023-04-05T10:20:22.520Z,16.61
2023-04-05T10:21:22.526Z,16.65
2023-04-05T10:22:22.523Z,16.68
2023-04-05T10:23:22.492Z,16.69
2023-04-05T10:24:22.493Z,16.71
2023-04-05T10:25:22.495Z,16.72
2023-04-05T10:26:22.461Z,16.75
2023-04-05T10:27:22.458Z,16.75
2023-04-05T10:28:22.504Z,16.75
2023-04-05T10:29:22.458Z,16.78
2023-04-05T10:30:22.417Z,16.79
2023-04-05T10:31:36.347Z,16.81
2023-04-05T10:32:23.532Z,16.83
2023-04-05T10:33:22.465Z,16.84
2023-04-05T10:34:22.440Z,16.84
2023-04-05T10:35:22.357Z,16.86
2023-04-05T10:36:22.421Z,16.86
2023-04-05T10:37:22.390Z,16.87
2023-04-05T10:38:22.320Z,16.89
2023-04-05T10:39:22.533Z,16.90
2023-04-05T10:40:22.329Z,16.93
2023-04-05T10:41:22.337Z,16.93
2023-04-05T10:42:22.354Z,16.94
2023-04-05T10:43:22.332Z,16.94
2023-04-05T10:44:26.329Z,16.94
2023-04-05T10:45:22.309Z,16.96
2023-04-05T10:46:22.348Z,16.96
2023-04-05T10:47:22.354Z,16.96
2023-04-05T10:48:22.268Z,16.96
2023-04-05T10:49:22.198Z,16.96
2023-04-05T10:50:22.230Z,16.96
2023-04-05T10:51:22.213Z,16.97
2023-04-05T10:52:22.240Z,16.99
2023-04-05T10:53:22.277Z,17.01
2023-04-05T10:54:22.497Z,17.01
2023-04-05T10:55:22.412Z,17.02
2023-04-05T10:56:22.146Z,17.02
2023-04-05T10:57:22.521Z,17.04
2023-04-05T10:58:22.317Z,17.04
2023-04-05T10:59:22.359Z,17.05
2023-04-05T11:00:22.955Z,17.05
2023-04-05T11:01:22.172Z,17.05
2023-04-05T11:02:22.116Z,17.06
2023-04-05T11:03:22.134Z,17.06
2023-04-05T11:04:22.068Z,17.06
2023-04-05T11:05:22.066Z,17.08
2023-04-05T11:06:22.056Z,17.08
2023-04-05T11:07:21.995Z,17.08
2023-04-05T11:08:22.036Z,17.09
2023-04-05T11:09:21.984Z,17.09
2023-04-05T11:10:21.996Z,17.08
2023-04-05T11:11:21.979Z,17.09
2023-04-05T11:12:21.965Z,17.08
2023-04-05T11:13:21.922Z,17.08
2023-04-05T11:14:21.930Z,17.06
2023-04-05T11:15:21.925Z,17.06
2023-04-05T11:16:22.083Z,17.06
2023-04-05T11:17:21.889Z,17.05
2023-04-05T11:18:21.946Z,17.04
2023-04-05T11:19:21.897Z,17.04
2023-04-05T11:20:21.895Z,17.02
2023-04-05T11:21:21.927Z,17.02
2023-04-05T11:22:21.876Z,17.01
2023-04-05T11:23:21.867Z,16.99
2023-04-05T11:24:21.875Z,16.97
2023-04-05T11:25:21.873Z,16.97
2023-04-05T11:26:21.803Z,16.97
2023-04-05T11:27:21.845Z,16.96
2023-04-05T11:28:21.774Z,16.96
2023-04-05T11:29:21.896Z,16.94
2023-04-05T11:30:21.745Z,16.93
2023-04-05T11:31:22.750Z,16.93
2023-04-05T11:32:21.831Z,16.91
2023-04-05T11:33:21.730Z,16.91
2023-04-05T11:34:23.082Z,16.91
2023-04-05T11:35:21.719Z,16.91
2023-04-05T11:36:21.684Z,16.90
2023-04-05T11:37:21.701Z,16.90
2023-04-05T11:38:21.672Z,16.90
2023-04-05T11:39:21.675Z,16.90
2023-04-05T11:40:21.626Z,16.87
2023-04-05T11:41:21.834Z,16.87
2023-04-05T11:42:21.649Z,16.87
2023-04-05T11:43:21.647Z,16.86
2023-04-05T11:44:21.627Z,16.87
2023-04-05T11:45:21.571Z,16.87
2023-04-05T11:46:21.676Z,16.86
2023-04-05T11:47:21.719Z,16.86
2023-04-05T11:48:21.584Z,16.86
2023-04-05T11:49:21.556Z,16.86
2023-04-05T11:50:21.541Z,16.87
2023-04-05T11:51:21.512Z,16.86
2023-04-05T11:52:21.536Z,16.84
2023-04-05T11:53:21.561Z,16.84
2023-04-05T11:54:21.496Z,16.84
2023-04-05T11:55:21.553Z,16.84
2023-04-05T11:56:21.490Z,16.83
2023-04-05T11:57:21.462Z,16.83
2023-04-05T11:58:21.474Z,16.83
2023-04-05T11:59:21.520Z,16.83
2023-04-05T12:00:21.559Z,16.83
2023-04-05T12:01:22.353Z,16.83
2023-04-05T12:02:21.537Z,16.81
2023-04-05T12:03:21.437Z,16.83
2023-04-05T12:04:21.416Z,16.83
2023-04-05T12:05:21.423Z,16.84
2023-04-05T12:06:21.369Z,16.86
2023-04-05T12:07:21.408Z,16.86
2023-04-05T12:08:21.384Z,16.86
2023-04-05T12:09:21.316Z,16.86
2023-04-05T12:10:21.355Z,16.84
2023-04-05T12:11:21.307Z,16.86
2023-04-05T12:12:21.333Z,16.87
2023-04-05T12:13:21.346Z,16.89
2023-04-05T12:14:21.324Z,16.90
2023-04-05T12:15:21.268Z,16.93
2023-04-05T12:16:21.266Z,16.93
2023-04-05T12:17:21.266Z,16.96
2023-04-05T12:18:21.237Z,16.94
2023-04-05T12:19:21.290Z,16.96
2023-04-05T12:20:21.213Z,16.97
2023-04-05T12:21:21.209Z,16.99
2023-04-05T12:22:21.159Z,17.02
2023-04-05T12:23:21.355Z,17.04
2023-04-05T12:24:21.163Z,17.02
2023-04-05T12:25:21.236Z,17.04
2023-04-05T12:26:21.137Z,17.04
2023-04-05T12:27:21.138Z,17.05
2023-04-05T12:28:21.104Z,17.05
2023-04-05T12:29:22.534Z,17.06
2023-04-05T12:30:21.269Z,17.06
2023-04-05T12:31:21.379Z,17.08
2023-04-05T12:32:22.732Z,17.08
2023-04-05T12:33:21.272Z,17.08
2023-04-05T12:34:21.147Z,17.06
2023-04-05T12:35:21.022Z,17.06
2023-04-05T12:36:21.023Z,17.05
2023-04-05T12:37:21.020Z,17.05
2023-04-05T12:38:20.988Z,17.05
2023-04-05T12:39:20.991Z,17.05
2023-04-05T12:40:20.991Z,17.04
2023-04-05T12:41:20.980Z,17.05
2023-04-05T12:42:20.959Z,17.05
2023-04-05T12:43:20.968Z,17.04
2023-04-05T12:44:20.976Z,17.02
2023-04-05T12:45:20.978Z,17.02
2023-04-05T12:46:20.962Z,17.02
2023-04-05T12:47:20.897Z,17.02
2023-04-05T12:48:20.891Z,17.01
2023-04-05T12:49:20.902Z,16.99
2023-04-05T12:50:20.887Z,16.99
2023-04-05T12:51:20.876Z,16.96
2023-04-05T12:52:20.850Z,16.94
2023-04-05T12:53:20.881Z,16.94